sensor_id;sensor_type;location;lat;lon;timestamp;P1;durP1;ratioP1;P2;durP2;ratioP2
33696;SDS011;20031;43.416;23.232;2022-12-10T00:00:18;17.70;;;10.90;;
33696;SDS011;20031;43.416;23.232;2022-12-10T00:02:44;47.28;;;11.43;;
33696;SDS011;20031;43.416;23.232;2022-12-10T00:05:09;22.55;;;12.05;;
33696;SDS011;20031;43.416;23.232;2022-12-10T00:07:35;18.42;;;11.68;;
33696;SDS011;20031;43.416;23.232;2022-12-10T00:10:00;21.85;;;12.18;;
33696;SDS011;20031;43.416;23.232;2022-12-10T00:12:26;61.53;;;12.50;;
33696;SDS011;20031;43.416;23.232;2022-12-10T00:14:51;28.88;;;12.85;;
33696;SDS011;20031;43.416;23.232;2022-12-10T00:17:17;30.95;;;12.05;;
33696;SDS011;20031;43.416;23.232;2022-12-10T00:19:42;28.88;;;12.60;;
33696;SDS011;20031;43.416;23.232;2022-12-10T00:22:07;34.03;;;12.82;;
33696;SDS011;20031;43.416;23.232;2022-12-10T00:24:33;49.03;;;13.80;;
33696;SDS011;20031;43.416;23.232;2022-12-10T00:26:58;35.97;;;13.52;;
33696;SDS011;20031;43.416;23.232;2022-12-10T00:29:24;27.02;;;13.55;;
33696;SDS011;20031;43.416;23.232;2022-12-10T00:31:50;23.13;;;12.40;;
33696;SDS011;20031;43.416;23.232;2022-12-10T00:34:15;24.67;;;12.75;;
33696;SDS011;20031;43.416;23.232;2022-12-10T00:36:44;21.13;;;12.70;;
33696;SDS011;20031;43.416;23.232;2022-12-10T00:39:13;21.13;;;12.18;;
33696;SDS011;20031;43.416;23.232;2022-12-10T00:41:42;17.20;;;10.68;;
33696;SDS011;20031;43.416;23.232;2022-12-10T00:44:07;19.08;;;11.77;;
33696;SDS011;20031;43.416;23.232;2022-12-10T00:46:33;18.85;;;11.60;;
33696;SDS011;20031;43.416;23.232;2022-12-10T00:48:59;54.55;;;16.88;;
33696;SDS011;20031;43.416;23.232;2022-12-10T00:51:25;43.80;;;16.05;;
33696;SDS011;20031;43.416;23.232;2022-12-10T00:53:52;42.75;;;15.18;;
33696;SDS011;20031;43.416;23.232;2022-12-10T00:56:20;28.33;;;13.30;;
33696;SDS011;20031;43.416;23.232;2022-12-10T00:58:50;52.75;;;14.80;;
33696;SDS011;20031;43.416;23.232;2022-12-10T01:01:20;28.08;;;12.68;;
33696;SDS011;20031;43.416;23.232;2022-12-10T01:03:47;23.15;;;13.02;;
33696;SDS011;20031;43.416;23.232;2022-12-10T01:06:18;34.58;;;13.57;;
33696;SDS011;20031;43.416;23.232;2022-12-10T01:08:45;20.23;;;11.52;;
33696;SDS011;20031;43.416;23.232;2022-12-10T01:11:12;20.27;;;12.13;;
33696;SDS011;20031;43.416;23.232;2022-12-10T01:13:39;16.17;;;10.65;;
33696;SDS011;20031;43.416;23.232;2022-12-10T01:16:06;18.45;;;10.15;;
33696;SDS011;20031;43.416;23.232;2022-12-10T01:18:34;16.23;;;10.80;;
33696;SDS011;20031;43.416;23.232;2022-12-10T01:21:03;19.20;;;11.65;;
33696;SDS011;20031;43.416;23.232;2022-12-10T01:23:36;19.50;;;10.63;;
33696;SDS011;20031;43.416;23.232;2022-12-10T01:26:04;19.50;;;11.20;;
33696;SDS011;20031;43.416;23.232;2022-12-10T01:28:33;18.38;;;11.32;;
33696;SDS011;20031;43.416;23.232;2022-12-10T01:31:00;17.95;;;11.35;;
33696;SDS011;20031;43.416;23.232;2022-12-10T01:33:31;17.77;;;11.00;;
33696;SDS011;20031;43.416;23.232;2022-12-10T01:36:06;16.85;;;11.15;;
33696;SDS011;20031;43.416;23.232;2022-12-10T01:38:34;15.93;;;10.77;;
33696;SDS011;20031;43.416;23.232;2022-12-10T01:41:01;18.23;;;10.57;;
33696;SDS011;20031;43.416;23.232;2022-12-10T01:43:27;15.75;;;10.48;;
33696;SDS011;20031;43.416;23.232;2022-12-10T01:45:53;21.80;;;11.27;;
33696;SDS011;20031;43.416;23.232;2022-12-10T01:48:18;20.58;;;11.10;;
33696;SDS011;20031;43.416;23.232;2022-12-10T01:50:44;20.23;;;12.25;;
33696;SDS011;20031;43.416;23.232;2022-12-10T01:53:10;18.10;;;11.60;;
33696;SDS011;20031;43.416;23.232;2022-12-10T01:58:16;17.92;;;11.13;;
33696;SDS011;20031;43.416;23.232;2022-12-10T02:03:52;18.77;;;11.07;;
33696;SDS011;20031;43.416;23.232;2022-12-10T02:06:42;20.52;;;11.70;;
33696;SDS011;20031;43.416;23.232;2022-12-10T02:09:19;17.95;;;11.88;;
33696;SDS011;20031;43.416;23.232;2022-12-10T02:12:16;46.42;;;12.38;;
33696;SDS011;20031;43.416;23.232;2022-12-10T02:15:06;43.22;;;13.10;;
33696;SDS011;20031;43.416;23.232;2022-12-10T02:21:10;24.92;;;12.73;;
33696;SDS011;20031;43.416;23.232;2022-12-10T02:23:43;29.33;;;13.50;;
33696;SDS011;20031;43.416;23.232;2022-12-10T02:26:19;61.92;;;13.82;;
33696;SDS011;20031;43.416;23.232;2022-12-10T02:31:21;107.90;;;13.88;;
33696;SDS011;20031;43.416;23.232;2022-12-10T02:33:53;114.13;;;14.10;;
33696;SDS011;20031;43.416;23.232;2022-12-10T02:36:22;57.38;;;12.52;;
33696;SDS011;20031;43.416;23.232;2022-12-10T02:38:49;65.82;;;12.93;;
33696;SDS011;20031;43.416;23.232;2022-12-10T02:41:22;35.35;;;12.50;;
33696;SDS011;20031;43.416;23.232;2022-12-10T02:43:53;28.67;;;12.55;;
33696;SDS011;20031;43.416;23.232;2022-12-10T02:46:21;32.17;;;12.82;;
33696;SDS011;20031;43.416;23.232;2022-12-10T02:48:49;83.57;;;13.00;;
33696;SDS011;20031;43.416;23.232;2022-12-10T02:51:16;75.10;;;13.52;;
33696;SDS011;20031;43.416;23.232;2022-12-10T02:53:44;71.55;;;13.85;;
33696;SDS011;20031;43.416;23.232;2022-12-10T02:56:54;89.57;;;14.02;;
33696;SDS011;20031;43.416;23.232;2022-12-10T03:04:57;31.33;;;12.25;;
33696;SDS011;20031;43.416;23.232;2022-12-10T03:07:34;24.98;;;12.93;;
33696;SDS011;20031;43.416;23.232;2022-12-10T03:10:14;29.88;;;12.30;;
33696;SDS011;20031;43.416;23.232;2022-12-10T03:12:47;23.90;;;12.25;;
33696;SDS011;20031;43.416;23.232;2022-12-10T03:15:15;23.85;;;12.73;;
33696;SDS011;20031;43.416;23.232;2022-12-10T03:17:43;34.85;;;18.63;;
33696;SDS011;20031;43.416;23.232;2022-12-10T03:20:11;22.65;;;13.65;;
33696;SDS011;20031;43.416;23.232;2022-12-10T03:22:39;18.40;;;11.50;;
33696;SDS011;20031;43.416;23.232;2022-12-10T03:25:08;16.35;;;10.90;;
33696;SDS011;20031;43.416;23.232;2022-12-10T03:27:36;16.52;;;10.75;;
33696;SDS011;20031;43.416;23.232;2022-12-10T03:30:04;17.10;;;10.48;;
33696;SDS011;20031;43.416;23.232;2022-12-10T03:32:30;17.75;;;10.10;;
33696;SDS011;20031;43.416;23.232;2022-12-10T03:34:56;19.10;;;10.68;;
33696;SDS011;20031;43.416;23.232;2022-12-10T03:37:23;17.90;;;10.60;;
33696;SDS011;20031;43.416;23.232;2022-12-10T03:39:50;15.73;;;10.23;;
33696;SDS011;20031;43.416;23.232;2022-12-10T03:42:16;17.83;;;11.23;;
33696;SDS011;20031;43.416;23.232;2022-12-10T03:44:42;20.45;;;10.35;;
33696;SDS011;20031;43.416;23.232;2022-12-10T03:47:10;14.43;;;9.43;;
33696;SDS011;20031;43.416;23.232;2022-12-10T03:49:39;17.23;;;10.73;;
33696;SDS011;20031;43.416;23.232;2022-12-10T03:52:05;14.25;;;9.40;;
33696;SDS011;20031;43.416;23.232;2022-12-10T03:54:31;14.48;;;9.70;;
33696;SDS011;20031;43.416;23.232;2022-12-10T03:56:56;15.77;;;9.45;;
33696;SDS011;20031;43.416;23.232;2022-12-10T03:59:22;14.60;;;9.93;;
33696;SDS011;20031;43.416;23.232;2022-12-10T04:01:47;14.88;;;9.77;;
33696;SDS011;20031;43.416;23.232;2022-12-10T04:04:13;17.17;;;10.20;;
33696;SDS011;20031;43.416;23.232;2022-12-10T04:06:39;18.25;;;11.45;;
33696;SDS011;20031;43.416;23.232;2022-12-10T04:09:05;22.02;;;11.65;;
33696;SDS011;20031;43.416;23.232;2022-12-10T04:11:31;18.48;;;10.73;;
33696;SDS011;20031;43.416;23.232;2022-12-10T04:13:56;16.38;;;10.70;;
33696;SDS011;20031;43.416;23.232;2022-12-10T04:16:40;20.65;;;13.27;;
33696;SDS011;20031;43.416;23.232;2022-12-10T04:19:07;24.50;;;14.45;;
33696;SDS011;20031;43.416;23.232;2022-12-10T04:21:35;24.85;;;14.35;;
33696;SDS011;20031;43.416;23.232;2022-12-10T04:27:11;31.20;;;17.13;;
33696;SDS011;20031;43.416;23.232;2022-12-10T04:29:38;20.02;;;12.60;;
33696;SDS011;20031;43.416;23.232;2022-12-10T04:32:04;16.65;;;10.70;;
33696;SDS011;20031;43.416;23.232;2022-12-10T04:34:30;27.08;;;14.73;;
33696;SDS011;20031;43.416;23.232;2022-12-10T04:36:56;14.90;;;9.98;;
33696;SDS011;20031;43.416;23.232;2022-12-10T04:39:23;14.65;;;9.45;;
33696;SDS011;20031;43.416;23.232;2022-12-10T04:41:49;13.85;;;9.55;;
33696;SDS011;20031;43.416;23.232;2022-12-10T04:44:15;14.43;;;9.75;;
33696;SDS011;20031;43.416;23.232;2022-12-10T04:46:40;23.52;;;12.13;;
33696;SDS011;20031;43.416;23.232;2022-12-10T04:49:06;27.90;;;14.02;;
33696;SDS011;20031;43.416;23.232;2022-12-10T04:51:32;16.67;;;10.75;;
33696;SDS011;20031;43.416;23.232;2022-12-10T04:53:57;15.02;;;9.98;;
33696;SDS011;20031;43.416;23.232;2022-12-10T04:56:23;13.10;;;8.75;;
33696;SDS011;20031;43.416;23.232;2022-12-10T04:58:49;15.02;;;9.98;;
33696;SDS011;20031;43.416;23.232;2022-12-10T05:01:15;14.18;;;9.45;;
33696;SDS011;20031;43.416;23.232;2022-12-10T05:03:43;16.52;;;9.77;;
33696;SDS011;20031;43.416;23.232;2022-12-10T05:06:09;17.00;;;9.25;;
33696;SDS011;20031;43.416;23.232;2022-12-10T05:08:37;14.45;;;9.55;;
33696;SDS011;20031;43.416;23.232;2022-12-10T05:11:05;14.88;;;9.73;;
33696;SDS011;20031;43.416;23.232;2022-12-10T05:13:41;14.98;;;10.32;;
33696;SDS011;20031;43.416;23.232;2022-12-10T05:16:07;14.27;;;9.27;;
33696;SDS011;20031;43.416;23.232;2022-12-10T05:18:35;16.13;;;10.07;;
33696;SDS011;20031;43.416;23.232;2022-12-10T05:21:02;13.02;;;9.20;;
33696;SDS011;20031;43.416;23.232;2022-12-10T05:23:33;14.68;;;8.80;;
33696;SDS011;20031;43.416;23.232;2022-12-10T05:26:05;16.10;;;9.63;;
33696;SDS011;20031;43.416;23.232;2022-12-10T05:28:35;14.52;;;9.23;;
33696;SDS011;20031;43.416;23.232;2022-12-10T05:31:03;14.18;;;9.70;;
33696;SDS011;20031;43.416;23.232;2022-12-10T05:33:29;13.70;;;9.15;;
33696;SDS011;20031;43.416;23.232;2022-12-10T05:35:56;17.02;;;10.95;;
33696;SDS011;20031;43.416;23.232;2022-12-10T05:38:26;14.45;;;10.10;;
33696;SDS011;20031;43.416;23.232;2022-12-10T05:40:53;14.10;;;9.45;;
33696;SDS011;20031;43.416;23.232;2022-12-10T05:43:18;16.55;;;8.40;;
33696;SDS011;20031;43.416;23.232;2022-12-10T05:45:44;13.70;;;8.98;;
33696;SDS011;20031;43.416;23.232;2022-12-10T05:48:11;47.92;;;26.23;;
33696;SDS011;20031;43.416;23.232;2022-12-10T05:50:38;24.77;;;14.02;;
33696;SDS011;20031;43.416;23.232;2022-12-10T05:53:04;18.63;;;11.77;;
33696;SDS011;20031;43.416;23.232;2022-12-10T05:55:29;16.52;;;10.27;;
33696;SDS011;20031;43.416;23.232;2022-12-10T05:57:56;22.98;;;13.75;;
33696;SDS011;20031;43.416;23.232;2022-12-10T06:00:22;15.35;;;10.40;;
33696;SDS011;20031;43.416;23.232;2022-12-10T06:02:49;17.60;;;10.38;;
33696;SDS011;20031;43.416;23.232;2022-12-10T06:05:15;14.32;;;9.48;;
33696;SDS011;20031;43.416;23.232;2022-12-10T06:07:41;16.00;;;9.25;;
33696;SDS011;20031;43.416;23.232;2022-12-10T06:10:06;14.95;;;8.55;;
33696;SDS011;20031;43.416;23.232;2022-12-10T06:12:32;14.60;;;10.18;;
33696;SDS011;20031;43.416;23.232;2022-12-10T06:14:58;16.20;;;10.52;;
33696;SDS011;20031;43.416;23.232;2022-12-10T06:17:23;23.42;;;13.05;;
33696;SDS011;20031;43.416;23.232;2022-12-10T06:19:49;28.92;;;14.20;;
33696;SDS011;20031;43.416;23.232;2022-12-10T06:22:14;37.17;;;16.70;;
33696;SDS011;20031;43.416;23.232;2022-12-10T06:24:40;27.77;;;14.55;;
33696;SDS011;20031;43.416;23.232;2022-12-10T06:27:05;22.15;;;13.75;;
33696;SDS011;20031;43.416;23.232;2022-12-10T06:29:31;33.22;;;18.48;;
33696;SDS011;20031;43.416;23.232;2022-12-10T06:31:56;21.60;;;12.38;;
33696;SDS011;20031;43.416;23.232;2022-12-10T06:34:21;17.63;;;10.25;;
33696;SDS011;20031;43.416;23.232;2022-12-10T06:36:47;18.30;;;10.48;;
33696;SDS011;20031;43.416;23.232;2022-12-10T06:39:12;16.90;;;10.60;;
33696;SDS011;20031;43.416;23.232;2022-12-10T06:41:38;19.40;;;12.43;;
33696;SDS011;20031;43.416;23.232;2022-12-10T06:44:06;19.10;;;12.90;;
33696;SDS011;20031;43.416;23.232;2022-12-10T06:46:32;17.20;;;10.75;;
33696;SDS011;20031;43.416;23.232;2022-12-10T06:48:58;15.50;;;10.63;;
33696;SDS011;20031;43.416;23.232;2022-12-10T06:51:24;14.20;;;9.85;;
33696;SDS011;20031;43.416;23.232;2022-12-10T06:53:49;15.57;;;9.85;;
33696;SDS011;20031;43.416;23.232;2022-12-10T06:56:16;13.32;;;8.98;;
33696;SDS011;20031;43.416;23.232;2022-12-10T06:58:44;14.45;;;8.32;;
33696;SDS011;20031;43.416;23.232;2022-12-10T07:01:14;13.20;;;8.80;;
33696;SDS011;20031;43.416;23.232;2022-12-10T07:03:42;11.98;;;8.23;;
33696;SDS011;20031;43.416;23.232;2022-12-10T07:06:08;17.48;;;9.43;;
33696;SDS011;20031;43.416;23.232;2022-12-10T07:08:35;22.98;;;10.60;;
33696;SDS011;20031;43.416;23.232;2022-12-10T07:11:05;16.85;;;9.90;;
33696;SDS011;20031;43.416;23.232;2022-12-10T07:13:31;14.00;;;8.40;;
33696;SDS011;20031;43.416;23.232;2022-12-10T07:15:57;12.98;;;8.23;;
33696;SDS011;20031;43.416;23.232;2022-12-10T07:18:22;13.80;;;8.50;;
33696;SDS011;20031;43.416;23.232;2022-12-10T07:20:48;13.13;;;9.15;;
33696;SDS011;20031;43.416;23.232;2022-12-10T07:23:13;14.68;;;8.73;;
33696;SDS011;20031;43.416;23.232;2022-12-10T07:25:38;13.02;;;7.93;;
33696;SDS011;20031;43.416;23.232;2022-12-10T07:28:04;12.25;;;8.10;;
33696;SDS011;20031;43.416;23.232;2022-12-10T07:30:29;15.13;;;8.80;;
33696;SDS011;20031;43.416;23.232;2022-12-10T07:32:55;16.88;;;9.13;;
33696;SDS011;20031;43.416;23.232;2022-12-10T07:35:20;12.75;;;8.23;;
33696;SDS011;20031;43.416;23.232;2022-12-10T07:37:45;11.25;;;7.50;;
33696;SDS011;20031;43.416;23.232;2022-12-10T07:40:11;13.02;;;8.85;;
33696;SDS011;20031;43.416;23.232;2022-12-10T07:42:36;16.38;;;9.10;;
33696;SDS011;20031;43.416;23.232;2022-12-10T07:45:02;16.60;;;10.30;;
33696;SDS011;20031;43.416;23.232;2022-12-10T07:47:28;14.75;;;9.05;;
33696;SDS011;20031;43.416;23.232;2022-12-10T07:49:54;13.32;;;8.95;;
33696;SDS011;20031;43.416;23.232;2022-12-10T07:52:19;16.38;;;9.75;;
33696;SDS011;20031;43.416;23.232;2022-12-10T07:54:45;15.50;;;9.75;;
33696;SDS011;20031;43.416;23.232;2022-12-10T07:57:10;16.52;;;10.27;;
33696;SDS011;20031;43.416;23.232;2022-12-10T07:59:36;16.17;;;9.40;;
33696;SDS011;20031;43.416;23.232;2022-12-10T08:02:01;14.50;;;9.18;;
33696;SDS011;20031;43.416;23.232;2022-12-10T08:04:30;18.83;;;10.95;;
33696;SDS011;20031;43.416;23.232;2022-12-10T08:06:55;12.27;;;8.57;;
33696;SDS011;20031;43.416;23.232;2022-12-10T08:09:21;12.82;;;7.35;;
33696;SDS011;20031;43.416;23.232;2022-12-10T08:11:46;49.65;;;34.28;;
33696;SDS011;20031;43.416;23.232;2022-12-10T08:14:12;32.88;;;22.05;;
33696;SDS011;20031;43.416;23.232;2022-12-10T08:16:37;14.43;;;9.90;;
33696;SDS011;20031;43.416;23.232;2022-12-10T08:19:03;13.52;;;8.27;;
33696;SDS011;20031;43.416;23.232;2022-12-10T08:21:29;13.07;;;7.80;;
33696;SDS011;20031;43.416;23.232;2022-12-10T08:23:57;11.75;;;8.02;;
33696;SDS011;20031;43.416;23.232;2022-12-10T08:26:24;11.38;;;8.00;;
33696;SDS011;20031;43.416;23.232;2022-12-10T08:28:52;24.17;;;14.82;;
33696;SDS011;20031;43.416;23.232;2022-12-10T08:31:19;18.65;;;11.70;;
33696;SDS011;20031;43.416;23.232;2022-12-10T08:33:46;78.32;;;38.95;;
33696;SDS011;20031;43.416;23.232;2022-12-10T08:36:12;39.88;;;21.48;;
33696;SDS011;20031;43.416;23.232;2022-12-10T08:38:39;28.98;;;17.15;;
33696;SDS011;20031;43.416;23.232;2022-12-10T08:41:13;73.32;;;48.05;;
33696;SDS011;20031;43.416;23.232;2022-12-10T08:43:42;27.33;;;18.02;;
33696;SDS011;20031;43.416;23.232;2022-12-10T08:46:08;40.72;;;22.75;;
33696;SDS011;20031;43.416;23.232;2022-12-10T08:48:35;38.08;;;21.17;;
33696;SDS011;20031;43.416;23.232;2022-12-10T08:51:01;123.13;;;58.40;;
33696;SDS011;20031;43.416;23.232;2022-12-10T08:53:27;73.07;;;37.58;;
33696;SDS011;20031;43.416;23.232;2022-12-10T08:55:53;12.40;;;8.07;;
33696;SDS011;20031;43.416;23.232;2022-12-10T08:58:18;12.30;;;8.02;;
33696;SDS011;20031;43.416;23.232;2022-12-10T09:00:44;12.38;;;7.90;;
33696;SDS011;20031;43.416;23.232;2022-12-10T09:03:10;10.43;;;6.97;;
33696;SDS011;20031;43.416;23.232;2022-12-10T09:05:36;38.92;;;21.65;;
33696;SDS011;20031;43.416;23.232;2022-12-10T09:08:02;121.50;;;70.32;;
33696;SDS011;20031;43.416;23.232;2022-12-10T09:10:27;34.38;;;22.27;;
33696;SDS011;20031;43.416;23.232;2022-12-10T09:12:53;14.90;;;9.43;;
33696;SDS011;20031;43.416;23.232;2022-12-10T09:15:19;12.75;;;8.65;;
33696;SDS011;20031;43.416;23.232;2022-12-10T09:17:44;11.40;;;8.00;;
33696;SDS011;20031;43.416;23.232;2022-12-10T09:20:10;34.83;;;21.45;;
33696;SDS011;20031;43.416;23.232;2022-12-10T09:22:35;37.55;;;22.73;;
33696;SDS011;20031;43.416;23.232;2022-12-10T09:25:03;24.90;;;15.30;;
33696;SDS011;20031;43.416;23.232;2022-12-10T09:27:30;13.63;;;9.00;;
33696;SDS011;20031;43.416;23.232;2022-12-10T09:29:56;22.10;;;13.07;;
33696;SDS011;20031;43.416;23.232;2022-12-10T09:32:21;13.55;;;8.95;;
33696;SDS011;20031;43.416;23.232;2022-12-10T09:34:50;26.55;;;18.77;;
33696;SDS011;20031;43.416;23.232;2022-12-10T09:37:16;23.80;;;15.93;;
33696;SDS011;20031;43.416;23.232;2022-12-10T09:39:41;31.70;;;20.30;;
33696;SDS011;20031;43.416;23.232;2022-12-10T09:47:31;29.92;;;19.83;;
33696;SDS011;20031;43.416;23.232;2022-12-10T09:50:24;15.38;;;10.65;;
33696;SDS011;20031;43.416;23.232;2022-12-10T09:52:54;17.52;;;10.95;;
33696;SDS011;20031;43.416;23.232;2022-12-10T09:55:26;20.60;;;12.32;;
33696;SDS011;20031;43.416;23.232;2022-12-10T09:57:58;15.18;;;9.75;;
33696;SDS011;20031;43.416;23.232;2022-12-10T10:00:35;15.65;;;10.48;;
33696;SDS011;20031;43.416;23.232;2022-12-10T10:03:04;18.35;;;10.23;;
33696;SDS011;20031;43.416;23.232;2022-12-10T10:05:33;16.15;;;9.77;;
33696;SDS011;20031;43.416;23.232;2022-12-10T10:08:02;15.20;;;10.45;;
33696;SDS011;20031;43.416;23.232;2022-12-10T10:10:35;90.40;;;54.17;;
33696;SDS011;20031;43.416;23.232;2022-12-10T10:15:33;117.47;;;58.00;;
33696;SDS011;20031;43.416;23.232;2022-12-10T10:20:58;21.85;;;12.05;;
33696;SDS011;20031;43.416;23.232;2022-12-10T10:23:25;20.63;;;14.00;;
33696;SDS011;20031;43.416;23.232;2022-12-10T10:25:50;15.90;;;10.57;;
33696;SDS011;20031;43.416;23.232;2022-12-10T10:28:18;32.83;;;18.65;;
33696;SDS011;20031;43.416;23.232;2022-12-10T10:30:45;24.38;;;15.73;;
33696;SDS011;20031;43.416;23.232;2022-12-10T10:33:12;26.48;;;16.67;;
33696;SDS011;20031;43.416;23.232;2022-12-10T10:35:49;25.05;;;14.75;;
33696;SDS011;20031;43.416;23.232;2022-12-10T10:38:20;21.20;;;13.88;;
33696;SDS011;20031;43.416;23.232;2022-12-10T10:40:55;16.33;;;10.80;;
33696;SDS011;20031;43.416;23.232;2022-12-10T10:48:39;15.52;;;10.02;;
33696;SDS011;20031;43.416;23.232;2022-12-10T10:53:41;11.38;;;8.35;;
33696;SDS011;20031;43.416;23.232;2022-12-10T10:56:27;14.05;;;9.10;;
33696;SDS011;20031;43.416;23.232;2022-12-10T11:01:42;12.48;;;8.30;;
33696;SDS011;20031;43.416;23.232;2022-12-10T11:04:15;11.35;;;7.45;;
33696;SDS011;20031;43.416;23.232;2022-12-10T11:06:43;13.30;;;8.27;;
33696;SDS011;20031;43.416;23.232;2022-12-10T11:09:15;11.68;;;8.68;;
33696;SDS011;20031;43.416;23.232;2022-12-10T11:11:50;30.20;;;18.73;;
33696;SDS011;20031;43.416;23.232;2022-12-10T11:14:24;15.52;;;9.77;;
33696;SDS011;20031;43.416;23.232;2022-12-10T11:19:35;41.35;;;26.98;;
33696;SDS011;20031;43.416;23.232;2022-12-10T11:22:49;12.02;;;8.18;;
33696;SDS011;20031;43.416;23.232;2022-12-10T11:24:59;16.23;;;10.63;;
33696;SDS011;20031;43.416;23.232;2022-12-10T11:32:48;36.20;;;19.25;;
33696;SDS011;20031;43.416;23.232;2022-12-10T11:39:05;15.85;;;10.93;;
33696;SDS011;20031;43.416;23.232;2022-12-10T11:41:36;21.38;;;12.48;;
33696;SDS011;20031;43.416;23.232;2022-12-10T11:52:46;19.15;;;11.50;;
33696;SDS011;20031;43.416;23.232;2022-12-10T11:55:27;15.27;;;9.18;;
33696;SDS011;20031;43.416;23.232;2022-12-10T12:17:17;15.00;;;9.50;;
33696;SDS011;20031;43.416;23.232;2022-12-10T12:23:02;13.60;;;9.80;;
33696;SDS011;20031;43.416;23.232;2022-12-10T12:25:40;15.32;;;10.10;;
33696;SDS011;20031;43.416;23.232;2022-12-10T12:31:12;11.82;;;9.48;;
33696;SDS011;20031;43.416;23.232;2022-12-10T12:34:03;16.55;;;10.25;;
33696;SDS011;20031;43.416;23.232;2022-12-10T12:36:36;16.10;;;10.23;;
33696;SDS011;20031;43.416;23.232;2022-12-10T12:50:28;20.10;;;13.27;;
33696;SDS011;20031;43.416;23.232;2022-12-10T12:53:09;69.55;;;26.48;;
33696;SDS011;20031;43.416;23.232;2022-12-10T12:55:43;14.43;;;11.27;;
33696;SDS011;20031;43.416;23.232;2022-12-10T12:58:13;40.92;;;19.63;;
33696;SDS011;20031;43.416;23.232;2022-12-10T13:00:41;29.55;;;15.32;;
33696;SDS011;20031;43.416;23.232;2022-12-10T13:05:48;18.17;;;11.38;;
33696;SDS011;20031;43.416;23.232;2022-12-10T13:08:21;17.02;;;11.07;;
33696;SDS011;20031;43.416;23.232;2022-12-10T13:15:49;20.08;;;12.15;;
33696;SDS011;20031;43.416;23.232;2022-12-10T13:28:20;19.33;;;12.82;;
33696;SDS011;20031;43.416;23.232;2022-12-10T13:31:06;19.20;;;12.93;;
33696;SDS011;20031;43.416;23.232;2022-12-10T13:44:49;17.58;;;12.18;;
33696;SDS011;20031;43.416;23.232;2022-12-10T13:47:32;16.00;;;11.23;;
33696;SDS011;20031;43.416;23.232;2022-12-10T13:50:16;17.08;;;12.45;;
33696;SDS011;20031;43.416;23.232;2022-12-10T13:55:31;18.23;;;12.60;;
33696;SDS011;20031;43.416;23.232;2022-12-10T14:06:08;20.02;;;13.40;;
33696;SDS011;20031;43.416;23.232;2022-12-10T14:08:59;21.17;;;12.95;;
33696;SDS011;20031;43.416;23.232;2022-12-10T14:11:32;21.25;;;13.77;;
33696;SDS011;20031;43.416;23.232;2022-12-10T14:14:01;32.05;;;19.90;;
33696;SDS011;20031;43.416;23.232;2022-12-10T14:16:30;28.20;;;16.27;;
33696;SDS011;20031;43.416;23.232;2022-12-10T14:19:01;38.28;;;21.52;;
33696;SDS011;20031;43.416;23.232;2022-12-10T14:21:34;43.60;;;23.08;;
33696;SDS011;20031;43.416;23.232;2022-12-10T14:24:01;42.03;;;22.92;;
33696;SDS011;20031;43.416;23.232;2022-12-10T14:26:29;32.28;;;18.40;;
33696;SDS011;20031;43.416;23.232;2022-12-10T14:29:08;32.20;;;18.85;;
33696;SDS011;20031;43.416;23.232;2022-12-10T14:31:44;62.88;;;28.27;;
33696;SDS011;20031;43.416;23.232;2022-12-10T14:34:14;24.23;;;14.93;;
33696;SDS011;20031;43.416;23.232;2022-12-10T14:36:47;25.45;;;16.38;;
33696;SDS011;20031;43.416;23.232;2022-12-10T14:39:21;24.52;;;16.73;;
33696;SDS011;20031;43.416;23.232;2022-12-10T14:41:51;25.77;;;17.02;;
33696;SDS011;20031;43.416;23.232;2022-12-10T14:44:20;25.98;;;18.08;;
33696;SDS011;20031;43.416;23.232;2022-12-10T14:46:47;29.30;;;18.70;;
33696;SDS011;20031;43.416;23.232;2022-12-10T14:49:19;28.13;;;18.08;;
33696;SDS011;20031;43.416;23.232;2022-12-10T14:51:49;30.63;;;17.13;;
33696;SDS011;20031;43.416;23.232;2022-12-10T14:54:27;29.00;;;17.95;;
33696;SDS011;20031;43.416;23.232;2022-12-10T14:56:58;33.30;;;18.65;;
33696;SDS011;20031;43.416;23.232;2022-12-10T14:59:35;27.40;;;17.60;;
33696;SDS011;20031;43.416;23.232;2022-12-10T15:02:16;28.75;;;18.08;;
33696;SDS011;20031;43.416;23.232;2022-12-10T15:04:54;30.17;;;18.08;;
33696;SDS011;20031;43.416;23.232;2022-12-10T15:07:22;46.72;;;26.17;;
33696;SDS011;20031;43.416;23.232;2022-12-10T15:09:49;33.15;;;21.02;;
33696;SDS011;20031;43.416;23.232;2022-12-10T15:12:27;31.25;;;19.02;;
33696;SDS011;20031;43.416;23.232;2022-12-10T15:14:57;31.83;;;20.55;;
33696;SDS011;20031;43.416;23.232;2022-12-10T15:17:53;34.60;;;20.17;;
33696;SDS011;20031;43.416;23.232;2022-12-10T15:21:05;34.22;;;19.40;;
33696;SDS011;20031;43.416;23.232;2022-12-10T15:25:59;34.90;;;20.48;;
33696;SDS011;20031;43.416;23.232;2022-12-10T15:28:34;36.45;;;19.48;;
33696;SDS011;20031;43.416;23.232;2022-12-10T15:33:55;32.80;;;19.30;;
33696;SDS011;20031;43.416;23.232;2022-12-10T15:38:57;41.80;;;20.73;;
33696;SDS011;20031;43.416;23.232;2022-12-10T15:41:33;38.20;;;21.55;;
33696;SDS011;20031;43.416;23.232;2022-12-10T15:44:18;49.00;;;20.95;;
33696;SDS011;20031;43.416;23.232;2022-12-10T15:47:01;44.83;;;20.92;;
33696;SDS011;20031;43.416;23.232;2022-12-10T15:49:33;71.90;;;21.15;;
33696;SDS011;20031;43.416;23.232;2022-12-10T15:51:59;149.18;;;22.42;;
33696;SDS011;20031;43.416;23.232;2022-12-10T15:54:32;68.32;;;21.17;;
33696;SDS011;20031;43.416;23.232;2022-12-10T15:56:58;76.32;;;20.90;;
33696;SDS011;20031;43.416;23.232;2022-12-10T15:59:24;76.05;;;21.63;;
33696;SDS011;20031;43.416;23.232;2022-12-10T16:01:49;153.27;;;21.52;;
33696;SDS011;20031;43.416;23.232;2022-12-10T16:04:15;60.67;;;22.65;;
33696;SDS011;20031;43.416;23.232;2022-12-10T16:06:41;54.67;;;21.88;;
33696;SDS011;20031;43.416;23.232;2022-12-10T16:09:08;58.10;;;21.75;;
33696;SDS011;20031;43.416;23.232;2022-12-10T16:11:34;47.38;;;21.27;;
33696;SDS011;20031;43.416;23.232;2022-12-10T16:14:00;43.70;;;22.52;;
33696;SDS011;20031;43.416;23.232;2022-12-10T16:16:27;33.00;;;18.17;;
33696;SDS011;20031;43.416;23.232;2022-12-10T16:18:53;59.65;;;19.80;;
33696;SDS011;20031;43.416;23.232;2022-12-10T16:21:18;93.45;;;21.73;;
33696;SDS011;20031;43.416;23.232;2022-12-10T16:23:44;74.43;;;22.42;;
33696;SDS011;20031;43.416;23.232;2022-12-10T16:26:17;86.32;;;20.02;;
33696;SDS011;20031;43.416;23.232;2022-12-10T16:28:45;50.90;;;18.75;;
33696;SDS011;20031;43.416;23.232;2022-12-10T16:31:12;77.35;;;19.70;;
33696;SDS011;20031;43.416;23.232;2022-12-10T16:33:40;78.35;;;19.20;;
33696;SDS011;20031;43.416;23.232;2022-12-10T16:36:06;95.20;;;21.63;;
33696;SDS011;20031;43.416;23.232;2022-12-10T16:38:31;71.35;;;22.45;;
33696;SDS011;20031;43.416;23.232;2022-12-10T16:40:57;112.00;;;21.30;;
33696;SDS011;20031;43.416;23.232;2022-12-10T16:43:25;100.38;;;20.73;;
33696;SDS011;20031;43.416;23.232;2022-12-10T16:45:53;213.02;;;22.45;;
33696;SDS011;20031;43.416;23.232;2022-12-10T16:48:20;157.43;;;21.17;;